Time;durP1;ratioP1;P1;durP2;ratioP2;P2;SDS_P1;SDS_P2;PMS_P1;PMS_P2;Temp;Humidity;BMP_temperature;BMP_pressure;BME280_temperature;BME280_humidity;BME280_pressure;Samples;Min_cycle;Max_cycle;Signal;HPM_P1;HPM_P2
2023/04/08 00:01:10;;;;;;;;;;;;;;;11.22;100.00;100458.69;5053559;28;20360;-61
2023/04/08 00:03:36;;;;;;;;;;;;;;;11.24;100.00;100460.38;5048184;28;21082;-60
2023/04/08 00:06:02;;;;;;;;;;;;;;;11.25;100.00;100458.59;5054201;28;20531;-61
2023/04/08 00:08:28;;;;;;;;;;;;;;;11.19;100.00;100458.75;5063036;28;19958;-61
2023/04/08 00:10:53;;;;;;;;;;;;;;;11.12;100.00;100459.88;5059339;28;19943;-61
2023/04/08 00:13:18;;;;;;;;;;;;;;;11.14;100.00;100463.31;5055317;28;19943;-61
2023/04/08 00:15:44;;;;;;;;;;;;;;;11.11;100.00;100463.41;5050438;28;19934;-61
2023/04/08 00:18:09;;;;;;;;;;;;;;;11.12;100.00;100454.53;5052471;28;19932;-61
2023/04/08 00:20:35;;;;;;;;;;;;;;;11.13;100.00;100458.94;5054195;28;19924;-61
2023/04/08 00:23:00;;;;;;;;;;;;;;;11.13;100.00;100457.16;5055657;28;20010;-61
2023/04/08 00:25:26;;;;;;;;;;;;;;;11.12;100.00;100465.19;5057449;28;20388;-61
2023/04/08 00:27:51;;;;;;;;;;;;;;;11.12;100.00;100458.03;5057049;28;19958;-61
2023/04/08 00:30:17;;;;;;;;;;;;;;;11.13;100.00;100461.59;5057951;28;19992;-61
2023/04/08 00:32:42;;;;;;;;;;;;;;;11.13;100.00;100454.50;5048983;28;19920;-61
2023/04/08 00:35:08;;;;;;;;;;;;;;;11.15;100.00;100457.09;5057306;28;19921;-60
2023/04/08 00:37:33;;;;;;;;;;;;;;;11.09;100.00;100459.91;5052786;28;19938;-57
2023/04/08 00:40:03;;;;;;;;;;;;;;;11.09;100.00;100459.91;5031898;28;19941;-58
2023/04/08 00:42:29;;;;;;;;;;;;;;;11.09;100.00;100460.81;5050669;28;19966;-57
2023/04/08 00:44:56;;;;;;;;;;;;;;;11.13;100.00;100459.81;5050868;28;19920;-57
2023/04/08 00:47:22;;;;;;;;;;;;;;;11.18;100.00;100454.34;5051006;28;20399;-57
2023/04/08 00:49:47;;;;;;;;;;;;;;;11.20;100.00;100458.69;5050770;28;19955;-57
2023/04/08 00:52:13;;;;;;;;;;;;;;;11.25;100.00;100458.59;5041072;28;19955;-57
2023/04/08 00:54:38;;;;;;;;;;;;;;;11.29;100.00;100468.22;5035716;28;19933;-58
2023/04/08 00:57:05;;;;;;;;;;;;;;;11.30;100.00;100467.34;5051398;28;20578;-57
2023/04/08 00:59:31;;;;;;;;;;;;;;;11.35;100.00;100466.25;5052517;28;20295;-57
2023/04/08 01:02:16;;;;;;;;;;;;;;;11.36;100.00;100469.81;5070533;28;19938;-57
2023/04/08 01:05:13;;;;;;;;;;;;;;;11.36;100.00;100469.81;5069018;28;19966;-57
2023/04/08 01:07:48;;;;;;;;;;;;;;;11.37;100.00;100471.53;5005830;28;20412;-57
2023/04/08 01:10:28;;;;;;;;;;;;;;;11.32;100.00;100469.03;5050455;28;19952;-57
2023/04/08 01:12:55;;;;;;;;;;;;;;;11.31;100.00;100466.41;5055594;28;19970;-58
2023/04/08 01:15:20;;;;;;;;;;;;;;;11.33;100.00;100469.91;5052963;28;20379;-57
2023/04/08 01:17:47;;;;;;;;;;;;;;;11.31;100.00;100467.28;5050805;28;19923;-58
2023/04/08 01:20:14;;;;;;;;;;;;;;;11.32;100.00;100470.81;5058546;28;19989;-57
2023/04/08 01:22:42;;;;;;;;;;;;;;;11.29;100.00;100471.78;5070023;28;19928;-57
2023/04/08 01:25:13;;;;;;;;;;;;;;;11.27;100.00;100467.41;5068503;28;19950;-57
2023/04/08 01:27:39;;;;;;;;;;;;;;;11.24;100.00;100470.16;5090317;28;20402;-57
2023/04/08 01:30:06;;;;;;;;;;;;;;;11.24;100.00;100475.47;5090358;28;19923;-57
2023/04/08 01:32:32;;;;;;;;;;;;;;;11.25;100.00;100471.91;5081278;28;20473;-57
2023/04/08 01:34:59;;;;;;;;;;;;;;;11.22;100.00;100472.00;5038483;28;19931;-57
2023/04/08 01:37:27;;;;;;;;;;;;;;;11.23;100.00;100468.41;5052467;28;20020;-58
2023/04/08 01:39:52;;;;;;;;;;;;;;;11.24;100.00;100475.47;5067672;28;19938;-58
2023/04/08 01:42:19;;;;;;;;;;;;;;;11.21;100.00;100465.78;5059417;28;20601;-58
2023/04/08 01:44:45;;;;;;;;;;;;;;;11.15;100.00;100478.41;5056478;28;19929;-58
2023/04/08 01:47:12;;;;;;;;;;;;;;;11.13;100.00;100481.13;5051856;28;19951;-57
2023/04/08 01:49:38;;;;;;;;;;;;;;;11.16;100.00;100472.16;5052226;28;20389;-57
2023/04/08 01:52:04;;;;;;;;;;;;;;;11.15;100.00;100476.59;5058565;28;19927;-57
2023/04/08 01:54:29;;;;;;;;;;;;;;;11.18;100.00;100470.31;5052097;28;19920;-57
2023/04/08 01:56:56;;;;;;;;;;;;;;;11.16;100.00;100472.16;5058654;28;19954;-57
2023/04/08 01:59:23;;;;;;;;;;;;;;;11.21;100.00;100463.13;5069369;28;20047;-57
2023/04/08 02:01:49;;;;;;;;;;;;;;;11.16;100.00;100473.03;5066069;28;19921;-57
2023/04/08 02:04:14;;;;;;;;;;;;;;;11.17;100.00;100468.59;5067604;28;20007;-58
2023/04/08 02:06:40;;;;;;;;;;;;;;;11.19;100.00;100472.06;5050218;28;19935;-56
2023/04/08 02:09:06;;;;;;;;;;;;;;;11.17;100.00;100479.25;5062906;28;19927;-57
2023/04/08 02:11:31;;;;;;;;;;;;;;;11.16;100.00;100467.72;5057296;28;20047;-56
2023/04/08 02:13:57;;;;;;;;;;;;;;;11.18;100.00;100465.00;5069835;28;20014;-57
2023/04/08 02:16:35;;;;;;;;;;;;;;;11.00;100.00;100468.16;5053805;28;19945;-57
2023/04/08 02:19:21;;;;;;;;;;;;;;;10.99;100.00;100474.41;5031855;28;19943;-56
2023/04/08 02:21:49;;;;;;;;;;;;;;;10.89;100.00;100470.25;5051290;28;19959;-56
2023/04/08 02:24:16;;;;;;;;;;;;;;;10.85;100.00;100471.25;5049527;28;20337;-56
2023/04/08 02:26:42;;;;;;;;;;;;;;;10.90;100.00;100479.97;5051778;28;19987;-56
2023/04/08 02:29:10;;;;;;;;;;;;;;;10.87;100.00;100480.94;5065341;28;20512;-56
2023/04/08 02:31:37;;;;;;;;;;;;;;;10.89;100.00;100471.09;5069474;28;19946;-56
2023/04/08 02:34:04;;;;;;;;;;;;;;;10.90;100.00;100477.31;5055513;28;19975;-57
2023/04/08 02:36:31;;;;;;;;;;;;;;;10.92;100.00;100481.69;5052014;28;19940;-56
2023/04/08 02:38:56;;;;;;;;;;;;;;;10.95;100.00;100478.06;5060009;28;19913;-56
2023/04/08 02:41:21;;;;;;;;;;;;;;;10.88;100.00;100477.34;5063855;28;19942;-57
2023/04/08 02:43:47;;;;;;;;;;;;;;;10.86;100.00;100478.28;5073566;28;19977;-56
2023/04/08 02:46:12;;;;;;;;;;;;;;;10.83;100.00;100470.41;5073184;28;19929;-57
2023/04/08 02:48:37;;;;;;;;;;;;;;;10.83;100.00;100476.59;5055855;28;20419;-57
2023/04/08 02:51:03;;;;;;;;;;;;;;;10.80;100.00;100473.16;5053407;28;20084;-58
2023/04/08 02:53:28;;;;;;;;;;;;;;;10.82;100.00;100480.19;5056094;28;19932;-57
2023/04/08 02:55:53;;;;;;;;;;;;;;;10.85;100.00;100472.13;5053218;28;19967;-57
2023/04/08 02:58:19;;;;;;;;;;;;;;;10.90;100.00;100474.66;5053484;28;20054;-57
2023/04/08 03:00:44;;;;;;;;;;;;;;;10.93;100.00;100475.44;5072483;28;19956;-57
2023/04/08 03:03:09;;;;;;;;;;;;;;;10.92;100.00;100472.84;5073004;28;19927;-58
2023/04/08 03:05:35;;;;;;;;;;;;;;;10.90;100.00;100472.88;5063237;28;19954;-57
2023/04/08 03:08:00;;;;;;;;;;;;;;;10.80;100.00;100474.03;5052862;28;20556;-58
2023/04/08 03:10:25;;;;;;;;;;;;;;;10.77;100.00;100470.56;5054310;28;19931;-58
2023/04/08 03:12:51;;;;;;;;;;;;;;;10.78;100.00;100470.53;5068498;28;20370;-57
2023/04/08 03:15:16;;;;;;;;;;;;;;;10.78;100.00;100477.63;5072846;28;19968;-57
2023/04/08 03:17:41;;;;;;;;;;;;;;;10.78;100.00;100475.84;5066637;28;19982;-57
2023/04/08 03:20:07;;;;;;;;;;;;;;;10.78;100.00;100475.84;5059167;28;19982;-58
2023/04/08 03:22:32;;;;;;;;;;;;;;;10.81;100.00;100472.25;5055195;28;19985;-57
2023/04/08 03:24:58;;;;;;;;;;;;;;;10.82;100.00;100471.31;5058260;28;20023;-56
2023/04/08 03:27:23;;;;;;;;;;;;;;;10.84;100.00;100480.16;5070858;28;19950;-57
2023/04/08 03:29:48;;;;;;;;;;;;;;;10.81;100.00;100474.91;5059151;28;19961;-56
2023/04/08 03:32:14;;;;;;;;;;;;;;;10.77;100.00;100478.56;5061850;28;20212;-56
2023/04/08 03:34:39;;;;;;;;;;;;;;;10.78;100.00;100485.59;5069785;28;19970;-56
2023/04/08 03:37:04;;;;;;;;;;;;;;;10.76;100.00;100477.66;5052049;28;19960;-57
2023/04/08 03:39:30;;;;;;;;;;;;;;;10.72;100.00;100488.44;5070850;28;20023;-56
2023/04/08 03:41:55;;;;;;;;;;;;;;;10.70;100.00;100492.91;5072561;28;20016;-56
2023/04/08 03:44:20;;;;;;;;;;;;;;;10.66;100.00;100499.25;5068856;28;20045;-57
2023/04/08 03:46:46;;;;;;;;;;;;;;;10.66;100.00;100492.13;5057760;28;19988;-56
2023/04/08 03:49:11;;;;;;;;;;;;;;;10.65;100.00;100495.69;5070459;28;20400;-57
2023/04/08 03:51:36;;;;;;;;;;;;;;;10.67;100.00;100493.00;5070493;28;19935;-56
2023/04/08 03:54:01;;;;;;;;;;;;;;;10.66;100.00;100492.13;5054111;28;19935;-56
2023/04/08 03:56:27;;;;;;;;;;;;;;;10.66;100.00;100492.13;5053242;28;19963;-56
2023/04/08 03:58:52;;;;;;;;;;;;;;;10.66;100.00;100494.78;5068068;28;19921;-56
2023/04/08 04:01:17;;;;;;;;;;;;;;;10.65;100.00;100493.03;5072042;28;20441;-57
2023/04/08 04:03:43;;;;;;;;;;;;;;;10.66;100.00;100493.94;5070116;28;19934;-56
2023/04/08 04:06:08;;;;;;;;;;;;;;;10.64;100.00;100488.66;5071976;28;19948;-57
2023/04/08 04:08:34;;;;;;;;;;;;;;;10.64;100.00;100489.50;5071930;28;19959;-56
2023/04/08 04:10:59;;;;;;;;;;;;;;;10.67;100.00;100485.91;5068615;28;19966;-57
2023/04/08 04:13:25;;;;;;;;;;;;;;;10.66;100.00;100492.13;5071746;28;19937;-58
2023/04/08 04:15:50;;;;;;;;;;;;;;;10.71;100.00;100489.38;5072058;28;19946;-57
2023/04/08 04:18:15;;;;;;;;;;;;;;;10.74;100.00;100487.47;5071825;28;19924;-57
2023/04/08 04:20:41;;;;;;;;;;;;;;;10.77;100.00;100483.88;5066399;28;19939;-58
2023/04/08 04:23:06;;;;;;;;;;;;;;;10.76;100.00;100483.00;5071669;28;19923;-58
2023/04/08 04:25:32;;;;;;;;;;;;;;;10.78;100.00;100481.16;5062410;28;20016;-58
2023/04/08 04:27:57;;;;;;;;;;;;;;;10.76;100.00;100483.00;5051411;28;19952;-58
2023/04/08 04:30:22;;;;;;;;;;;;;;;10.74;100.00;100486.63;5052212;28;20331;-58
2023/04/08 04:32:48;;;;;;;;;;;;;;;10.73;100.00;100490.19;5053421;28;19938;-57
2023/04/08 04:35:13;;;;;;;;;;;;;;;10.70;100.00;100495.56;5051481;28;19966;-57
2023/04/08 04:37:38;;;;;;;;;;;;;;;10.69;100.00;100485.84;5060724;28;19977;-58
2023/04/08 04:40:04;;;;;;;;;;;;;;;10.68;100.00;100494.72;5071473;28;19997;-58
2023/04/08 04:42:29;;;;;;;;;;;;;;;10.67;100.00;100499.22;5070743;28;20323;-57
2023/04/08 04:44:55;;;;;;;;;;;;;;;10.66;100.00;100499.25;5071553;28;20357;-57
2023/04/08 04:47:20;;;;;;;;;;;;;;;10.63;100.00;100497.53;5063200;28;19952;-58
2023/04/08 04:49:45;;;;;;;;;;;;;;;10.62;100.00;100503.75;5070115;28;20345;-57
2023/04/08 04:52:11;;;;;;;;;;;;;;;10.62;100.00;100501.97;5066401;28;20321;-57
2023/04/08 04:54:36;;;;;;;;;;;;;;;10.60;100.00;100506.47;5070033;28;19954;-57
2023/04/08 04:57:01;;;;;;;;;;;;;;;10.63;100.00;100510.81;5064473;28;19955;-58
2023/04/08 04:59:27;;;;;;;;;;;;;;;10.66;100.00;100513.41;5050053;28;19929;-58
2023/04/08 05:01:52;;;;;;;;;;;;;;;10.71;100.00;100515.97;5053554;28;19942;-57
2023/04/08 05:04:17;;;;;;;;;;;;;;;10.73;100.00;100519.44;5052539;28;19990;-57
2023/04/08 05:06:42;;;;;;;;;;;;;;;10.73;100.00;100524.75;5067451;28;20086;-57
2023/04/08 05:09:08;;;;;;;;;;;;;;;10.74;100.00;100521.22;5055299;28;19947;-57
2023/04/08 05:11:33;;;;;;;;;;;;;;;10.75;100.00;100522.94;5070486;28;19935;-58
2023/04/08 05:13:58;;;;;;;;;;;;;;;10.73;100.00;100524.75;5056317;28;19940;-58
2023/04/08 05:16:23;;;;;;;;;;;;;;;10.73;100.00;100527.41;5050178;28;20456;-57
2023/04/08 05:18:49;;;;;;;;;;;;;;;10.75;100.00;100528.25;5068826;28;19934;-58
2023/04/08 05:21:15;;;;;;;;;;;;;;;10.82;100.00;100524.53;5069208;28;19960;-58
2023/04/08 05:23:40;;;;;;;;;;;;;;;10.83;100.00;100527.16;5065411;28;20052;-57
2023/04/08 05:26:06;;;;;;;;;;;;;;;10.85;100.00;100536.00;5069149;28;20127;-58
2023/04/08 05:28:31;;;;;;;;;;;;;;;10.86;100.00;100536.84;5066548;28;19944;-58
2023/04/08 05:30:56;;;;;;;;;;;;;;;10.87;100.00;100538.59;5070091;28;19935;-57
2023/04/08 05:33:22;;;;;;;;;;;;;;;10.90;100.00;100527.88;5068274;28;20462;-57
2023/04/08 05:35:47;;;;;;;;;;;;;;;10.94;100.00;100537.56;5062119;28;19939;-58
2023/04/08 05:38:12;;;;;;;;;;;;;;;10.97;100.00;100537.47;5070649;28;20027;-57
2023/04/08 05:40:37;;;;;;;;;;;;;;;11.01;100.00;100536.44;5069920;28;19953;-57
2023/04/08 05:43:03;;;;;;;;;;;;;;;11.01;100.00;100541.78;5066517;28;19946;-57
2023/04/08 05:45:28;;;;;;;;;;;;;;;11.04;100.00;100547.00;5050015;28;19938;-57
2023/04/08 05:47:54;;;;;;;;;;;;;;;11.06;100.00;100550.50;5052693;28;19955;-57
2023/04/08 05:50:19;;;;;;;;;;;;;;;11.07;100.00;100546.97;5064941;28;19938;-57
2023/04/08 05:52:44;;;;;;;;;;;;;;;11.11;100.00;100552.16;5069826;28;19956;-57
2023/04/08 05:55:10;;;;;;;;;;;;;;;11.15;100.00;100547.63;5061721;28;19954;-56
2023/04/08 05:57:36;;;;;;;;;;;;;;;11.17;100.00;100553.78;5069969;28;19927;-56
2023/04/08 06:00:01;;;;;;;;;;;;;;;11.18;100.00;100558.19;5064890;28;20031;-57
2023/04/08 06:02:26;;;;;;;;;;;;;;;11.15;100.00;100553.81;5049982;28;19958;-58
2023/04/08 06:04:51;;;;;;;;;;;;;;;11.16;100.00;100565.34;5055547;28;19944;-58
2023/04/08 06:07:17;;;;;;;;;;;;;;;11.18;100.00;100568.84;5041001;28;19954;-58
2023/04/08 06:09:42;;;;;;;;;;;;;;;11.23;100.00;100564.28;5050656;28;19990;-58
2023/04/08 06:12:08;;;;;;;;;;;;;;;11.25;100.00;100573.09;5059156;28;19935;-58
2023/04/08 06:14:33;;;;;;;;;;;;;;;11.22;100.00;100567.88;5049050;28;19936;-58
2023/04/08 06:16:58;;;;;;;;;;;;;;;11.21;100.00;100579.41;5045788;28;20050;-58
2023/04/08 06:19:24;;;;;;;;;;;;;;;11.22;100.00;100578.50;5053799;28;19953;-58
2023/04/08 06:21:50;;;;;;;;;;;;;;;11.18;100.00;100576.84;5069715;28;19984;-57
2023/04/08 06:24:15;;;;;;;;;;;;;;;11.23;100.00;100580.25;5065804;28;19931;-57
2023/04/08 06:26:41;;;;;;;;;;;;;;;11.24;100.00;100580.22;5069237;28;19933;-58
2023/04/08 06:29:06;;;;;;;;;;;;;;;11.27;100.00;100582.78;5069407;28;20415;-57
2023/04/08 06:31:32;;;;;;;;;;;;;;;11.27;100.00;100579.22;5056538;28;19929;-57
2023/04/08 06:33:57;;;;;;;;;;;;;;;11.28;100.00;100578.34;5051865;28;19936;-57
2023/04/08 06:36:22;;;;;;;;;;;;;;;11.34;100.00;100578.16;5059960;28;19941;-57
2023/04/08 06:38:48;;;;;;;;;;;;;;;11.50;100.00;100568.84;5066719;28;20049;-58
2023/04/08 06:41:13;;;;;;;;;;;;;;;11.69;100.00;100580.78;5050038;28;19935;-57
2023/04/08 06:43:38;;;;;;;;;;;;;;;11.88;100.00;100582.00;5068972;28;20457;-57
2023/04/08 06:46:04;;;;;;;;;;;;;;;12.03;100.00;100581.56;5055185;28;19939;-57
2023/04/08 06:48:29;;;;;;;;;;;;;;;12.07;100.00;100587.66;5049190;28;20010;-58
2023/04/08 06:50:59;;;;;;;;;;;;;;;12.21;100.00;100585.47;5051416;28;19975;-58
2023/04/08 06:53:25;;;;;;;;;;;;;;;12.31;98.72;100577.13;5049325;28;20005;-57
2023/04/08 06:55:50;;;;;;;;;;;;;;;12.47;98.34;100589.06;5048696;28;20003;-58
2023/04/08 06:58:16;;;;;;;;;;;;;;;12.52;96.95;100586.28;5051857;28;20387;-58
2023/04/08 07:00:41;;;;;;;;;;;;;;;12.57;96.18;100585.19;5049302;28;19938;-57
2023/04/08 07:03:06;;;;;;;;;;;;;;;12.59;96.02;100583.38;5052256;28;19954;-58
2023/04/08 07:05:34;;;;;;;;;;;;;;;12.62;95.74;100583.25;5061553;28;19954;-58
2023/04/08 07:07:59;;;;;;;;;;;;;;;12.71;95.11;100585.66;5069472;28;19921;-58
2023/04/08 07:10:25;;;;;;;;;;;;;;;12.74;94.48;100588.22;5065724;28;19988;-58
2023/04/08 07:12:51;;;;;;;;;;;;;;;12.89;95.14;100578.81;5069019;28;19931;-58
2023/04/08 07:15:16;;;;;;;;;;;;;;;12.97;94.77;100600.81;5065440;28;20446;-58
2023/04/08 07:17:41;;;;;;;;;;;;;;;13.10;94.45;100591.50;5068823;28;19929;-57
2023/04/08 07:20:07;;;;;;;;;;;;;;;13.20;94.27;100593.81;5068532;28;19983;-58
2023/04/08 07:22:32;;;;;;;;;;;;;;;13.42;94.57;100590.41;5051272;28;19942;-57
2023/04/08 07:24:57;;;;;;;;;;;;;;;13.66;93.54;100600.22;5063745;28;19927;-58
2023/04/08 07:27:23;;;;;;;;;;;;;;;13.65;92.12;100598.47;5069111;28;20612;-57
2023/04/08 07:29:51;;;;;;;;;;;;;;;13.81;92.64;100608.56;5072049;28;19929;-58
2023/04/08 07:32:17;;;;;;;;;;;;;;;14.01;91.68;100607.81;5071987;28;19933;-58
2023/04/08 07:34:42;;;;;;;;;;;;;;;14.09;89.63;100603.06;5055180;28;19959;-58
2023/04/08 07:37:07;;;;;;;;;;;;;;;14.31;89.91;100609.38;5051513;28;19952;-57
2023/04/08 07:39:32;;;;;;;;;;;;;;;14.52;90.16;100604.09;5054830;28;19981;-57
2023/04/08 07:41:58;;;;;;;;;;;;;;;14.72;87.79;100616.69;5051076;28;19941;-57
2023/04/08 07:44:23;;;;;;;;;;;;;;;14.76;86.98;100612.94;5071249;28;19931;-57
2023/04/08 07:46:50;;;;;;;;;;;;;;;14.80;86.79;100619.91;5071621;28;20417;-58
2023/04/08 07:49:15;;;;;;;;;;;;;;;14.83;85.49;100619.78;5072090;28;19957;-58
2023/04/08 07:51:41;;;;;;;;;;;;;;;14.89;86.26;100614.16;5071956;28;19975;-57
2023/04/08 07:54:06;;;;;;;;;;;;;;;15.08;86.12;100620.53;5069711;28;20008;-57
2023/04/08 07:56:31;;;;;;;;;;;;;;;15.34;84.18;100623.00;5072076;28;19961;-58
2023/04/08 07:58:57;;;;;;;;;;;;;;;15.41;82.31;100624.53;5072189;28;19933;-58
2023/04/08 08:01:22;;;;;;;;;;;;;;;15.39;81.45;100631.75;5062837;28;19940;-58
2023/04/08 08:03:48;;;;;;;;;;;;;;;15.27;80.32;100632.22;5056519;28;19935;-58
2023/04/08 08:06:13;;;;;;;;;;;;;;;15.25;80.64;100631.44;5069289;28;20399;-58
2023/04/08 08:08:39;;;;;;;;;;;;;;;15.06;80.15;100635.81;5067880;28;20469;-58
2023/04/08 08:11:04;;;;;;;;;;;;;;;14.95;80.17;100635.38;5070058;28;20392;-59
2023/04/08 08:13:30;;;;;;;;;;;;;;;15.03;80.25;100635.06;5065302;28;20301;-57
2023/04/08 08:15:56;;;;;;;;;;;;;;;15.13;79.71;100623.91;5071145;28;19988;-58
2023/04/08 08:18:21;;;;;;;;;;;;;;;15.02;79.79;100636.88;5066689;28;19933;-57
2023/04/08 08:20:46;;;;;;;;;;;;;;;15.18;79.25;100637.09;5069307;28;19927;-57
2023/04/08 08:23:11;;;;;;;;;;;;;;;15.30;78.66;100632.13;5068904;28;19944;-57
2023/04/08 08:25:37;;;;;;;;;;;;;;;15.41;79.23;100629.88;5067369;28;20558;-57
2023/04/08 08:28:02;;;;;;;;;;;;;;;15.56;78.71;100634.59;5070811;28;19951;-57
2023/04/08 08:30:27;;;;;;;;;;;;;;;15.50;76.81;100637.53;5068590;28;19942;-58
2023/04/08 08:32:52;;;;;;;;;;;;;;;15.63;78.08;100637.88;5062273;28;19971;-57
2023/04/08 08:35:18;;;;;;;;;;;;;;;15.64;78.35;100634.25;5070867;28;19929;-57
2023/04/08 08:37:43;;;;;;;;;;;;;;;15.90;78.45;100642.03;5069912;28;19933;-57
2023/04/08 08:40:09;;;;;;;;;;;;;;;15.59;73.68;100637.16;5069452;28;20222;-58
2023/04/08 08:42:34;;;;;;;;;;;;;;;15.86;72.49;100643.13;5066921;28;20485;-57
2023/04/08 08:45:03;;;;;;;;;;;;;;;16.21;72.00;100638.84;5061845;28;20479;-58
2023/04/08 08:47:29;;;;;;;;;;;;;;;16.83;70.82;100640.38;5071214;28;19955;-58
2023/04/08 08:49:55;;;;;;;;;;;;;;;17.54;69.52;100647.59;5071064;28;19966;-59
2023/04/08 08:52:20;;;;;;;;;;;;;;;18.00;63.65;100641.56;5053998;28;19987;-58
2023/04/08 08:54:45;;;;;;;;;;;;;;;18.36;64.62;100655.75;5069431;28;19956;-57
2023/04/08 08:57:18;;;;;;;;;;;;;;;19.11;61.43;100641.69;5066758;28;20446;-58
2023/04/08 08:59:44;;;;;;;;;;;;;;;19.33;59.73;100636.78;5063675;28;20021;-57
2023/04/08 09:02:26;;;;;;;;;;;;;;;19.27;57.43;100647.91;5065770;28;19940;-57
2023/04/08 09:04:58;;;;;;;;;;;;;;;19.01;58.80;100653.94;5066882;28;20039;-57
2023/04/08 09:07:25;;;;;;;;;;;;;;;18.59;57.17;100653.63;5070726;28;19946;-57
2023/04/08 09:09:51;;;;;;;;;;;;;;;18.35;57.50;100656.69;5068737;28;20304;-57
2023/04/08 09:12:16;;;;;;;;;;;;;;;18.21;58.57;100653.00;5064632;28;19935;-57
2023/04/08 09:14:42;;;;;;;;;;;;;;;18.22;59.79;100661.00;5069253;28;20464;-58
2023/04/08 09:17:07;;;;;;;;;;;;;;;17.73;61.08;100660.94;5069508;28;19934;-57
2023/04/08 09:19:32;;;;;;;;;;;;;;;17.70;63.49;100655.72;5066491;28;20007;-58
2023/04/08 09:22:06;;;;;;;;;;;;;;;17.36;62.42;100656.56;5060299;28;20017;-58
2023/04/08 09:24:31;;;;;;;;;;;;;;;17.10;64.16;100659.63;5066328;28;19942;-57
2023/04/08 09:26:56;;;;;;;;;;;;;;;16.82;63.85;100664.59;5069687;28;19940;-57
2023/04/08 09:29:25;;;;;;;;;;;;;;;16.95;66.17;100663.09;5067176;28;19924;-57
2023/04/08 09:31:54;;;;;;;;;;;;;;;17.18;65.69;100662.84;5065185;28;20006;-57
2023/04/08 09:34:22;;;;;;;;;;;;;;;17.61;64.55;100659.75;5066694;28;19946;-57
2023/04/08 09:36:48;;;;;;;;;;;;;;;18.17;64.52;100652.28;5061829;28;19931;-58
2023/04/08 09:39:13;;;;;;;;;;;;;;;18.39;61.92;100668.19;5049592;28;19943;-57
2023/04/08 09:41:39;;;;;;;;;;;;;;;18.29;60.30;100661.53;5065962;28;19941;-57
2023/04/08 09:44:09;;;;;;;;;;;;;;;18.04;57.51;100661.97;5063758;28;19921;-57
2023/04/08 09:46:40;;;;;;;;;;;;;;;18.68;58.28;100658.53;5067243;28;20227;-56
2023/04/08 09:49:09;;;;;;;;;;;;;;;19.90;54.91;100648.66;5056990;28;19982;-58
2023/04/08 09:51:41;;;;;;;;;;;;;;;20.25;50.98;100656.34;5060416;28;19938;-56
2023/04/08 09:54:11;;;;;;;;;;;;;;;20.24;47.80;100651.06;5066981;28;19936;-58
2023/04/08 09:56:57;;;;;;;;;;;;;;;20.47;48.36;100655.88;5069332;28;19924;-57
2023/04/08 09:59:26;;;;;;;;;;;;;;;20.55;50.37;100665.25;5063825;28;19937;-56
2023/04/08 10:01:56;;;;;;;;;;;;;;;20.71;46.39;100660.59;5068640;28;19988;-57
2023/04/08 10:04:23;;;;;;;;;;;;;;;20.64;46.39;100661.13;5066691;28;19947;-56
2023/04/08 10:06:53;;;;;;;;;;;;;;;20.51;47.67;100663.69;5064839;28;19934;-56
2023/04/08 10:09:21;;;;;;;;;;;;;;;19.97;48.32;100671.59;5065929;28;20021;-57
2023/04/08 10:11:47;;;;;;;;;;;;;;;20.17;49.15;100666.78;5064254;28;19935;-57
2023/04/08 10:14:12;;;;;;;;;;;;;;;20.62;44.91;100661.22;5062431;28;19998;-57
2023/04/08 10:16:37;;;;;;;;;;;;;;;21.36;47.14;100663.59;5068515;28;19933;-57
2023/04/08 10:19:22;;;;;;;;;;;;;;;21.94;44.39;100661.44;5061627;28;20399;-57
2023/04/08 10:21:49;;;;;;;;;;;;;;;22.67;43.55;100657.97;5069491;28;19969;-58
2023/04/08 10:24:14;;;;;;;;;;;;;;;22.69;42.38;100661.47;5045227;28;19953;-57
2023/04/08 10:26:39;;;;;;;;;;;;;;;22.87;41.88;100656.53;5048900;28;20022;-57
2023/04/08 10:29:17;;;;;;;;;;;;;;;22.70;42.83;100652.34;5058434;28;20058;-57
2023/04/08 10:31:42;;;;;;;;;;;;;;;22.30;42.69;100657.97;5068524;28;19928;-57
2023/04/08 10:34:34;;;;;;;;;;;;;;;22.05;43.43;100658.84;5056059;28;19929;-57
2023/04/08 10:37:01;;;;;;;;;;;;;;;21.42;41.29;100661.34;5061887;28;20314;-57
2023/04/08 10:39:26;;;;;;;;;;;;;;;21.54;43.42;100651.53;5056192;28;20327;-57
2023/04/08 10:41:51;;;;;;;;;;;;;;;21.69;42.72;100653.19;5060136;28;20012;-57
2023/04/08 10:44:20;;;;;;;;;;;;;;;21.71;41.36;100648.56;5065956;28;19945;-57
2023/04/08 10:46:46;;;;;;;;;;;;;;;21.49;41.21;100648.25;5059692;28;20632;-57
2023/04/08 10:49:12;;;;;;;;;;;;;;;21.74;41.60;100656.47;5068361;28;19986;-57
2023/04/08 10:51:38;;;;;;;;;;;;;;;21.80;40.74;100646.13;5062227;28;19977;-57
2023/04/08 10:54:14;;;;;;;;;;;;;;;21.86;44.04;100644.84;5067431;28;20050;-56
2023/04/08 10:56:45;;;;;;;;;;;;;;;21.96;43.03;100648.63;5060011;28;19961;-59
2023/04/08 10:59:12;;;;;;;;;;;;;;;21.78;42.15;100648.06;5059739;28;19920;-60
2023/04/08 11:01:39;;;;;;;;;;;;;;;21.89;42.77;100641.91;5068296;28;19965;-59
2023/04/08 11:04:12;;;;;;;;;;;;;;;22.00;42.41;100642.91;5063780;28;19966;-59
2023/04/08 11:06:37;;;;;;;;;;;;;;;22.72;41.31;100644.97;5074691;28;19927;-59
2023/04/08 11:09:03;;;;;;;;;;;;;;;23.52;39.75;100629.94;5068998;28;20272;-59
2023/04/08 11:11:29;;;;;;;;;;;;;;;23.32;39.70;100635.06;5058318;28;20750;-60
2023/04/08 11:13:55;;;;;;;;;;;;;;;23.82;40.95;100625.72;5072044;28;19927;-59
2023/04/08 11:16:21;;;;;;;;;;;;;;;24.21;38.13;100624.50;5064426;28;19923;-59
2023/04/08 11:18:46;;;;;;;;;;;;;;;24.90;37.55;100629.75;5072382;28;20303;-60
2023/04/08 11:21:12;;;;;;;;;;;;;;;24.69;37.37;100631.50;5072476;28;20454;-60
2023/04/08 11:23:37;;;;;;;;;;;;;;;24.88;35.23;100626.28;5068793;28;19941;-60
2023/04/08 11:26:03;;;;;;;;;;;;;;;25.12;36.82;100634.28;5072221;28;19921;-60
2023/04/08 11:28:29;;;;;;;;;;;;;;;24.66;36.67;100621.69;5067594;28;19932;-60
2023/04/08 11:30:54;;;;;;;;;;;;;;;24.52;36.57;100612.91;5068268;28;20371;-60
2023/04/08 11:33:20;;;;;;;;;;;;;;;24.70;37.58;100619.63;5068375;28;19924;-60
2023/04/08 11:35:50;;;;;;;;;;;;;;;24.79;36.93;100615.28;5071681;28;19936;-60
2023/04/08 11:38:15;;;;;;;;;;;;;;;24.75;34.62;100617.41;5063976;28;19961;-61
2023/04/08 11:40:51;;;;;;;;;;;;;;;24.35;36.34;100621.56;5051695;28;19927;-60
2023/04/08 11:43:16;;;;;;;;;;;;;;;23.97;36.23;100615.53;5070196;28;20030;-59
2023/04/08 11:45:42;;;;;;;;;;;;;;;24.21;36.08;100619.94;5067575;28;20059;-60
2023/04/08 11:48:11;;;;;;;;;;;;;;;24.40;36.64;100614.75;5070760;28;19992;-60
2023/04/08 11:50:36;;;;;;;;;;;;;;;24.51;35.65;100611.19;5048699;28;20669;-60
2023/04/08 11:53:02;;;;;;;;;;;;;;;23.70;34.55;100609.53;5052535;28;19955;-59
2023/04/08 11:55:28;;;;;;;;;;;;;;;23.26;36.35;100608.34;5069196;28;19928;-59
2023/04/08 11:57:55;;;;;;;;;;;;;;;22.71;37.91;100607.97;5068003;28;19945;-59
2023/04/08 12:00:20;;;;;;;;;;;;;;;22.14;37.74;100609.44;5059679;28;20717;-59
2023/04/08 12:02:49;;;;;;;;;;;;;;;21.97;40.30;100601.59;5070981;28;19989;-59
2023/04/08 12:05:15;;;;;;;;;;;;;;;21.45;39.70;100609.69;5064653;28;19921;-60
2023/04/08 12:07:41;;;;;;;;;;;;;;;21.15;40.23;100610.91;5053394;28;19963;-59
2023/04/08 12:10:08;;;;;;;;;;;;;;;21.03;40.92;100607.16;5055643;28;20370;-59
2023/04/08 12:12:33;;;;;;;;;;;;;;;20.72;43.18;100613.66;5074377;28;19920;-59
2023/04/08 12:14:58;;;;;;;;;;;;;;;20.62;43.12;100606.25;5048646;28;19992;-59
2023/04/08 12:17:24;;;;;;;;;;;;;;;20.24;41.40;100611.41;5070498;28;19936;-59
2023/04/08 12:19:51;;;;;;;;;;;;;;;19.99;41.16;100610.28;5068273;28;19940;-59
2023/04/08 12:22:16;;;;;;;;;;;;;;;19.84;41.76;100616.59;5057924;28;19982;-59
2023/04/08 12:24:41;;;;;;;;;;;;;;;19.91;43.59;100601.78;5052439;28;19964;-59
2023/04/08 12:27:07;;;;;;;;;;;;;;;19.71;43.40;100616.50;5044703;28;20451;-60